Puropanmaru No.3 — JD3322 — position and weather

sailwx.info

Track history (hours):
 
Tides and Currents Weather Stations Pressure Air Temp Water Temp Dewpoint Dewpoint Depression Visibility Wind Speed Wind Dir Waves Ship Positions

Puropanmaru No.3

Last reported at 2016-May-23 08:16 UTC. Time now 2016-May-27 14:20 UTC.
Position N 33°55' E 134°60'.

Length 68 m; draft 4 m.

Type: Tanker. MMSI: 431003365.

Date/timePositionNaut miles runAvg speedWind from/ knotsBaromVisibWave heightAir tempDewpointWater temp
2016-May-23 08:16N 33°55' E 134°60'912.5
2016-May-23 07:33N 34°04' E 134°59'1414.2
2016-May-23 06:34N 34°18' E 134°58'1312.9
2016-May-23 05:34N 34°27' E 135°10'1312.9
2016-May-23 04:33N 34°33' E 135°24'2 0.7
2016-May-23 02:09N 34°32' E 135°25'0 0.0
2016-May-23 00:10N 34°32' E 135°25'1 0.9
2016-May-22 23:34N 34°33' E 135°25'5 4.8
2016-May-22 22:34N 34°32' E 135°19'0 0.0
2016-May-22 21:22N 34°32' E 135°19'0 0.0
2016-May-22 20:22N 34°32' E 135°19'0 0.0
2016-May-22 19:28N 34°32' E 135°19'0 0.0
2016-May-22 18:28N 34°32' E 135°19'0 0.0
2016-May-22 17:28N 34°32' E 135°19'0 0.0
2016-May-22 16:28N 34°32' E 135°19'0 0.0
2016-May-22 15:04N 34°32' E 135°19'0 0.0
2016-May-22 14:28N 34°32' E 135°19'0 0.0
2016-May-22 13:10N 34°32' E 135°19'0 0.0
2016-May-22 12:28N 34°32' E 135°19'0 0.0
2016-May-22 11:28N 34°32' E 135°19'0 0.0
2016-May-22 10:28N 34°32' E 135°19'0 0.0
2016-May-22 09:28N 34°32' E 135°19'0 0.0
2016-May-22 08:10N 34°32' E 135°19'0 0.0
2016-May-22 07:28N 34°32' E 135°19'6 6.9
2016-May-22 06:33N 34°28' E 135°13'2110.6
2016-May-22 04:33N 34°10' E 135°00'24210.5
2016-May-21 05:33N 35°11' E 139°45'1211.6
2016-May-21 04:33N 35°22' E 139°42'1212.2
2016-May-21 03:33N 35°31' E 139°53'8 7.5
2016-May-21 02:33N 35°31' E 140°02'0 0.0
2016-May-21 01:33N 35°31' E 140°02'0 0.0
2016-May-21 00:33N 35°31' E 140°02'0 0.0
2016-May-20 23:33N 35°31' E 140°02'4 3.3
2016-May-20 22:26N 35°33' E 140°05'0 0.0
2016-May-20 21:32N 35°33' E 140°05'0 0.0
2016-May-20 20:32N 35°33' E 140°05'0 0.0
2016-May-20 19:32N 35°33' E 140°05'0 0.0
2016-May-20 18:32N 35°33' E 140°05'0 0.0
2016-May-20 17:26N 35°33' E 140°05'0 0.0
2016-May-20 16:32N 35°33' E 140°05'0 0.0
2016-May-20 15:32N 35°33' E 140°05'0 0.0
2016-May-20 14:32N 35°33' E 140°05'0 0.0
2016-May-20 13:32N 35°33' E 140°05'0 0.0
2016-May-20 12:26N 35°33' E 140°05'0 0.0
2016-May-20 11:32N 35°33' E 140°05'0 0.0
2016-May-20 10:26N 35°33' E 140°05'0 0.0
2016-May-20 09:32N 35°33' E 140°05'0 0.0
2016-May-20 08:32N 35°33' E 140°05'0 0.0
2016-May-20 07:32N 35°33' E 140°05'0 0.0
2016-May-20 06:32N 35°33' E 140°05'1 0.3
2016-May-20 04:34N 35°33' E 140°04'1211.8
2016-May-20 03:33N 35°28' E 139°51'1211.7
2016-May-20 02:33N 35°18' E 139°45'1111.4
2016-May-20 01:33N 35°06' E 139°45'17 7.9
2016-May-19 23:26N 34°56' E 140°02'1112.1
2016-May-19 22:33N 35°01' E 140°12'3912.2
2016-May-19 19:23N 35°30' E 140°45'57 2.1
2016-May-18 16:33N 36°25' E 141°03'1211.9
2016-May-18 15:31N 36°13' E 141°01'1212.2
2016-May-18 14:33N 36°01' E 140°59'1212.1
2016-May-18 13:33N 35°49' E 140°57'1111.4
2016-May-18 12:33N 35°39' E 140°53'1212.3
2016-May-18 11:33N 35°29' E 140°44'1312.5
2016-May-18 10:31N 35°18' E 140°35'2512.3
2016-May-18 08:31N 35°01' E 140°13'24 8.0
2016-May-18 05:31N 35°03' E 139°44'1212.9
2016-May-18 04:33N 35°15' E 139°46'1111.3
2016-May-18 03:33N 35°25' E 139°39'0 0.0
2016-May-18 02:33N 35°25' E 139°39'0 0.0
2016-May-18 01:33N 35°25' E 139°39'0 0.0
2016-May-18 00:33N 35°25' E 139°39'0 0.0
2016-May-17 23:33N 35°25' E 139°39'3 2.9
2016-May-17 22:33N 35°22' E 139°40'0 0.0
2016-May-17 21:31N 35°22' E 139°40'0 0.0
2016-May-17 20:31N 35°22' E 139°40'0 0.0
2016-May-17 19:31N 35°22' E 139°40'0 0.0
2016-May-17 18:31N 35°22' E 139°40'0 0.0
2016-May-17 17:31N 35°22' E 139°40'0 0.0
2016-May-17 16:31N 35°22' E 139°40'0 0.0
2016-May-17 15:31N 35°22' E 139°40'0 0.0
2016-May-17 14:31N 35°22' E 139°40'0 0.0
2016-May-17 13:31N 35°22' E 139°40'0 0.0
2016-May-17 12:31N 35°22' E 139°40'0 0.0
2016-May-17 11:28N 35°22' E 139°40'910.3
2016-May-17 10:33N 35°14' E 139°47'4 0.2
2016-May-16 09:32N 35°11' E 139°45'1111.4
2016-May-16 08:33N 35°22' E 139°42'1111.3
2016-May-16 07:33N 35°30' E 139°52'9 8.4
2016-May-16 06:32N 35°31' E 140°02'0 0.0
2016-May-16 05:33N 35°31' E 140°02'0 0.0
2016-May-16 04:33N 35°31' E 140°02'0 0.0
2016-May-16 03:33N 35°31' E 140°02'0 0.0
2016-May-16 02:33N 35°31' E 140°02'0 0.0
2016-May-16 01:33N 35°31' E 140°02'6 6.3
2016-May-16 00:33N 35°29' E 139°55'0 0.0
2016-May-15 23:32N 35°29' E 139°55'0 0.0
2016-May-15 21:29N 35°29' E 139°55'0 0.0
2016-May-15 20:32N 35°29' E 139°55'0 0.0
2016-May-15 19:32N 35°29' E 139°55'0 0.0
2016-May-15 18:32N 35°29' E 139°55'0 0.0
2016-May-15 17:14N 35°29' E 139°55'0 0.0
2016-May-15 16:29N 35°29' E 139°55'0 0.0
2016-May-15 15:32N 35°29' E 139°55'0 0.0
2016-May-15 14:32N 35°29' E 139°55'0 0.0
2016-May-15 13:32N 35°29' E 139°55'0 0.0
2016-May-15 12:32N 35°29' E 139°55'0 0.0
2016-May-15 11:20N 35°29' E 139°55'0 0.0
2016-May-15 10:20N 35°29' E 139°55'0 0.0
2016-May-15 09:26N 35°29' E 139°55'0 0.0
2016-May-15 08:29N 35°29' E 139°55'0 0.0
2016-May-15 07:26N 35°29' E 139°55'7 8.2
2016-May-15 06:34N 35°30' E 139°47'1 1.0
2016-May-15 05:34N 35°31' E 139°46'0 0.0
2016-May-15 04:34N 35°31' E 139°46'0 0.0
2016-May-15 03:33N 35°31' E 139°46'0 0.0
2016-May-15 02:34N 35°31' E 139°46'0 0.0
2016-May-15 01:34N 35°31' E 139°46'0 0.0
2016-May-15 00:34N 35°31' E 139°46'0 0.0
2016-May-14 23:34N 35°31' E 139°46'0 0.0
2016-May-14 22:34N 35°31' E 139°46'3 3.2
2016-May-14 21:33N 35°29' E 139°49'0 0.0
2016-May-14 20:33N 35°29' E 139°49'0 0.0
2016-May-14 19:33N 35°29' E 139°49'0 0.0
2016-May-14 18:33N 35°29' E 139°49'0 0.0
2016-May-14 17:33N 35°29' E 139°49'0 0.0
2016-May-14 16:33N 35°29' E 139°49'0 0.0
2016-May-14 15:33N 35°29' E 139°49'0 0.0
2016-May-14 14:33N 35°29' E 139°49'0 0.0
2016-May-14 13:33N 35°29' E 139°49'0 0.0
2016-May-14 12:33N 35°29' E 139°49'0 0.0
2016-May-14 11:33N 35°29' E 139°49'0 0.0
2016-May-14 10:33N 35°29' E 139°49'5 4.6
2016-May-14 09:33N 35°25' E 139°47'1211.5
2016-May-14 08:33N 35°13' E 139°47'24610.7
2016-May-13 09:28N 34°03' E 134°60'1313.3
2016-May-13 08:30N 34°16' E 134°59'  
Track history (hours):
 
Tides and Currents Weather Stations Pressure Air Temp Water Temp Dewpoint Dewpoint Depression Visibility Wind Speed Wind Dir Waves Ship Positions

Puropanmaru No.3

Last reported at 2016-May-23 08:16 UTC. Time now 2016-May-27 14:20 UTC.
Position N 33°55' E 134°60'.

Length 68 m; draft 4 m.

Type: Tanker. MMSI: 431003365.

Date/timePositionNaut miles runAvg speedWind from/ knotsBaromVisibWave heightAir tempDewpointWater temp
2016-May-23 08:16N 33°55' E 134°60'912.5
2016-May-23 07:33N 34°04' E 134°59'1414.2
2016-May-23 06:34N 34°18' E 134°58'1312.9
2016-May-23 05:34N 34°27' E 135°10'1312.9
2016-May-23 04:33N 34°33' E 135°24'2 0.7
2016-May-23 02:09N 34°32' E 135°25'0 0.0
2016-May-23 00:10N 34°32' E 135°25'1 0.9
2016-May-22 23:34N 34°33' E 135°25'5 4.8
2016-May-22 22:34N 34°32' E 135°19'0 0.0
2016-May-22 21:22N 34°32' E 135°19'0 0.0
2016-May-22 20:22N 34°32' E 135°19'0 0.0
2016-May-22 19:28N 34°32' E 135°19'0 0.0
2016-May-22 18:28N 34°32' E 135°19'0 0.0
2016-May-22 17:28N 34°32' E 135°19'0 0.0
2016-May-22 16:28N 34°32' E 135°19'0 0.0
2016-May-22 15:04N 34°32' E 135°19'0 0.0
2016-May-22 14:28N 34°32' E 135°19'0 0.0
2016-May-22 13:10N 34°32' E 135°19'0 0.0
2016-May-22 12:28N 34°32' E 135°19'0 0.0
2016-May-22 11:28N 34°32' E 135°19'0 0.0
2016-May-22 10:28N 34°32' E 135°19'0 0.0
2016-May-22 09:28N 34°32' E 135°19'0 0.0
2016-May-22 08:10N 34°32' E 135°19'0 0.0
2016-May-22 07:28N 34°32' E 135°19'6 6.9
2016-May-22 06:33N 34°28' E 135°13'2110.6
2016-May-22 04:33N 34°10' E 135°00'24210.5
2016-May-21 05:33N 35°11' E 139°45'1211.6
2016-May-21 04:33N 35°22' E 139°42'1212.2
2016-May-21 03:33N 35°31' E 139°53'8 7.5
2016-May-21 02:33N 35°31' E 140°02'0 0.0
2016-May-21 01:33N 35°31' E 140°02'0 0.0
2016-May-21 00:33N 35°31' E 140°02'0 0.0
2016-May-20 23:33N 35°31' E 140°02'4 3.3
2016-May-20 22:26N 35°33' E 140°05'0 0.0
2016-May-20 21:32N 35°33' E 140°05'0 0.0
2016-May-20 20:32N 35°33' E 140°05'0 0.0
2016-May-20 19:32N 35°33' E 140°05'0 0.0
2016-May-20 18:32N 35°33' E 140°05'0 0.0
2016-May-20 17:26N 35°33' E 140°05'0 0.0
2016-May-20 16:32N 35°33' E 140°05'0 0.0
2016-May-20 15:32N 35°33' E 140°05'0 0.0
2016-May-20 14:32N 35°33' E 140°05'0 0.0
2016-May-20 13:32N 35°33' E 140°05'0 0.0
2016-May-20 12:26N 35°33' E 140°05'0 0.0
2016-May-20 11:32N 35°33' E 140°05'0 0.0
2016-May-20 10:26N 35°33' E 140°05'0 0.0
2016-May-20 09:32N 35°33' E 140°05'0 0.0
2016-May-20 08:32N 35°33' E 140°05'0 0.0
2016-May-20 07:32N 35°33' E 140°05'0 0.0
2016-May-20 06:32N 35°33' E 140°05'1 0.3
2016-May-20 04:34N 35°33' E 140°04'1211.8
2016-May-20 03:33N 35°28' E 139°51'1211.7
2016-May-20 02:33N 35°18' E 139°45'1111.4
2016-May-20 01:33N 35°06' E 139°45'17 7.9
2016-May-19 23:26N 34°56' E 140°02'1112.1
2016-May-19 22:33N 35°01' E 140°12'3912.2
2016-May-19 19:23N 35°30' E 140°45'57 2.1
2016-May-18 16:33N 36°25' E 141°03'1211.9
2016-May-18 15:31N 36°13' E 141°01'1212.2
2016-May-18 14:33N 36°01' E 140°59'1212.1
2016-May-18 13:33N 35°49' E 140°57'1111.4
2016-May-18 12:33N 35°39' E 140°53'1212.3
2016-May-18 11:33N 35°29' E 140°44'1312.5
2016-May-18 10:31N 35°18' E 140°35'2512.3
2016-May-18 08:31N 35°01' E 140°13'24 8.0
2016-May-18 05:31N 35°03' E 139°44'1212.9
2016-May-18 04:33N 35°15' E 139°46'1111.3
2016-May-18 03:33N 35°25' E 139°39'0 0.0
2016-May-18 02:33N 35°25' E 139°39'0 0.0
2016-May-18 01:33N 35°25' E 139°39'0 0.0
2016-May-18 00:33N 35°25' E 139°39'0 0.0
2016-May-17 23:33N 35°25' E 139°39'3 2.9
2016-May-17 22:33N 35°22' E 139°40'0 0.0
2016-May-17 21:31N 35°22' E 139°40'0 0.0
2016-May-17 20:31N 35°22' E 139°40'0 0.0
2016-May-17 19:31N 35°22' E 139°40'0 0.0
2016-May-17 18:31N 35°22' E 139°40'0 0.0
2016-May-17 17:31N 35°22' E 139°40'0 0.0
2016-May-17 16:31N 35°22' E 139°40'0 0.0
2016-May-17 15:31N 35°22' E 139°40'0 0.0
2016-May-17 14:31N 35°22' E 139°40'0 0.0
2016-May-17 13:31N 35°22' E 139°40'0 0.0
2016-May-17 12:31N 35°22' E 139°40'0 0.0
2016-May-17 11:28N 35°22' E 139°40'910.3
2016-May-17 10:33N 35°14' E 139°47'4 0.2
2016-May-16 09:32N 35°11' E 139°45'1111.4
2016-May-16 08:33N 35°22' E 139°42'1111.3
2016-May-16 07:33N 35°30' E 139°52'9 8.4
2016-May-16 06:32N 35°31' E 140°02'0 0.0
2016-May-16 05:33N 35°31' E 140°02'0 0.0
2016-May-16 04:33N 35°31' E 140°02'0 0.0
2016-May-16 03:33N 35°31' E 140°02'0 0.0
2016-May-16 02:33N 35°31' E 140°02'0 0.0
2016-May-16 01:33N 35°31' E 140°02'6 6.3
2016-May-16 00:33N 35°29' E 139°55'0 0.0
2016-May-15 23:32N 35°29' E 139°55'0 0.0
2016-May-15 21:29N 35°29' E 139°55'0 0.0
2016-May-15 20:32N 35°29' E 139°55'0 0.0
2016-May-15 19:32N 35°29' E 139°55'0 0.0
2016-May-15 18:32N 35°29' E 139°55'0 0.0
2016-May-15 17:14N 35°29' E 139°55'0 0.0
2016-May-15 16:29N 35°29' E 139°55'0 0.0
2016-May-15 15:32N 35°29' E 139°55'0 0.0
2016-May-15 14:32N 35°29' E 139°55'0 0.0
2016-May-15 13:32N 35°29' E 139°55'0 0.0
2016-May-15 12:32N 35°29' E 139°55'0 0.0
2016-May-15 11:20N 35°29' E 139°55'0 0.0
2016-May-15 10:20N 35°29' E 139°55'0 0.0
2016-May-15 09:26N 35°29' E 139°55'0 0.0
2016-May-15 08:29N 35°29' E 139°55'0 0.0
2016-May-15 07:26N 35°29' E 139°55'7 8.2
2016-May-15 06:34N 35°30' E 139°47'1 1.0
2016-May-15 05:34N 35°31' E 139°46'0 0.0
2016-May-15 04:34N 35°31' E 139°46'0 0.0
2016-May-15 03:33N 35°31' E 139°46'0 0.0
2016-May-15 02:34N 35°31' E 139°46'0 0.0
2016-May-15 01:34N 35°31' E 139°46'0 0.0
2016-May-15 00:34N 35°31' E 139°46'0 0.0
2016-May-14 23:34N 35°31' E 139°46'0 0.0
2016-May-14 22:34N 35°31' E 139°46'3 3.2
2016-May-14 21:33N 35°29' E 139°49'0 0.0
2016-May-14 20:33N 35°29' E 139°49'0 0.0
2016-May-14 19:33N 35°29' E 139°49'0 0.0
2016-May-14 18:33N 35°29' E 139°49'0 0.0
2016-May-14 17:33N 35°29' E 139°49'0 0.0
2016-May-14 16:33N 35°29' E 139°49'0 0.0
2016-May-14 15:33N 35°29' E 139°49'0 0.0
2016-May-14 14:33N 35°29' E 139°49'0 0.0
2016-May-14 13:33N 35°29' E 139°49'0 0.0
2016-May-14 12:33N 35°29' E 139°49'0 0.0
2016-May-14 11:33N 35°29' E 139°49'0 0.0
2016-May-14 10:33N 35°29' E 139°49'5 4.6
2016-May-14 09:33N 35°25' E 139°47'1211.5
2016-May-14 08:33N 35°13' E 139°47'24610.7
2016-May-13 09:28N 34°03' E 134°60'1313.3
2016-May-13 08:30N 34°16' E 134°59'  

Dump ship's entire track history